• Join FlightAware (Why Join?)
  • Login
  • US Flag 
10:33AM EDT


 

Airport Tracker/Info


-or-


 

Live Flight TrackerFlight Track Log ✈ AAL2427 ✈ 12-Jul-2014 ✈ KDFW - KONT

Flight Track Log - Related Links

Times and Time Zones

All times are in EDT time to prevent confusion due to time zone crossing. See the AAL2427 flight status page for this flight to view local times or setup timezone preferences in your user account.

Time Position Orientation Groundspeed Altitude Reporting Facility
EDT Latitude Longitude Course Direction KTS MPH feet Rate Location/Type
11:12PM 32.8444 -97.0511 293° West 186 214 34,000  Level Fort Worth Center
11:13PM 32.7822 -97.0536 182° South 215 247 34,000 -13,380 Level Fort Worth Center
11:14PM 32.6906 -97.2717 292° West  Level FlightAware Approximate
11:14PM 32.7411 -97.1236 235° Southwest 273 314 6,900  Level Fort Worth Center
11:15PM 32.7394 -97.4082 293° West  Level FlightAware Approximate
11:15PM 32.7564 -97.2200 281° West 296 341 10,000  Level Fort Worth Center
11:16PM 32.7887 -97.5447 293° West  Level FlightAware Approximate
11:16PM 32.7781 -97.3217 284° West 321 369 11,700  Level Fort Worth Center
11:17PM 32.8375 -97.6815 293° West  Level FlightAware Approximate
11:17PM 32.8036 -97.4392 285° West 364 419 13,200  Level Fort Worth Center
11:18PM 32.8331 -97.5778 284° West 396 456 15,200 1,860 Climbing Fort Worth Center
11:19PM 32.8600 -97.7089 284° West 429 494 17,000 1,740 Climbing Fort Worth Center
11:20PM 32.8661 -97.8617 273° West 428 493 18,800 1,680 Climbing Fort Worth Center
11:21PM 32.8928 -98.0067 282° West 446 513 20,500 1,440 Climbing Fort Worth Center
11:22PM 32.9247 -98.1533 285° West 457 526 21,800 1,380 Climbing Fort Worth Center
11:23PM 32.9589 -98.3036 285° West 467 537 23,400 1,320 Climbing Fort Worth Center
11:24PM 32.9933 -98.4414 287° West 479 551 24,500 1,320 Climbing Fort Worth Center
11:25PM 33.0347 -98.6158 286° West 480 552 26,200 1,560 Climbing Fort Worth Center
11:26PM 33.0736 -98.7700 287° West 485 558 27,700 1,500 Climbing Fort Worth Center
11:27PM 33.1033 -98.9244 283° West 485 558 29,300 1,320 Climbing Fort Worth Center
11:28PM 33.1369 -99.0764 285° West 482 555 30,400 1,140 Climbing Fort Worth Center
11:29PM 33.1706 -99.2297 285° West 478 550 31,600 1,020 Climbing Fort Worth Center
11:30PM 33.2031 -99.3819 284° West 478 550 32,500 960 Climbing Fort Worth Center
11:31PM 33.2367 -99.5344 285° West 478 550 33,600 720 Climbing Fort Worth Center
11:32PM 33.2681 -99.6850 284° West 475 547 34,000 180 Climbing Fort Worth Center
11:33PM 33.3008 -99.8392 284° West 478 550 34,000  Level Fort Worth Center
11:34PM 33.3328 -99.9928 284° West 479 551 34,000  Level Fort Worth Center
11:35PM 33.3586 -100.1475 281° West 477 549 34,000  Level Fort Worth Center
11:36PM 33.3808 -100.3056 280° West 478 550 34,000  Level Fort Worth Center
11:37PM 33.4047 -100.4633 280° West 481 554 34,000  Level Fort Worth Center
11:38PM 33.4333 -100.6503 280° West 481 554 34,000  Level Fort Worth Center
11:39PM 33.4561 -100.8083 280° West 481 554 34,000  Level Fort Worth Center
11:40PM 33.4800 -100.9642 280° West 480 552 34,000  Level Fort Worth Center
11:41PM 33.5033 -101.1178 280° West 473 544 34,000  Level Fort Worth Center
11:42PM 33.5258 -101.2700 280° West 468 539 34,000  Level Fort Worth Center
11:43PM 33.5483 -101.4125 281° West 466 536 34,000  Level Fort Worth Center
11:44PM 33.5703 -101.5639 280° West 465 535 34,000  Level Fort Worth Center
11:45PM 33.5928 -101.7156 280° West 463 533 34,000  Level Fort Worth Center
11:46PM 33.6142 -101.8683 280° West 464 534 34,000  Level Fort Worth Center
11:47PM 33.6367 -102.0203 280° West 464 534 34,000  Level Fort Worth Center
11:48PM 33.6578 -102.1714 280° West 464 534 34,000  Level Fort Worth Center
11:49PM 33.6781 -102.3219 279° West 463 533 34,000  Level Fort Worth Center
11:50PM 33.6994 -102.4714 280° West 460 529 34,000  Level Fort Worth Center
11:51PM 33.7239 -102.6542 279° West 460 529 34,000  Level Fort Worth Center
11:52PM 33.7442 -102.8036 279° West 458 527 34,000  Level Fort Worth Center
11:53PM 33.7644 -102.9575 279° West 460 529 34,000  Level Fort Worth Center
11:54PM 33.7850 -103.1072 279° West 460 529 34,000  Level Fort Worth Center
11:55PM 33.8042 -103.2583 279° West 460 529 34,000  Level Fort Worth Center
11:56PM 33.8231 -103.4094 279° West 460 529 34,000  Level Fort Worth Center
11:57PM 33.8431 -103.5594 279° West 459 528 34,000  Level Fort Worth Center
11:59PM 33.8631 -103.7103 279° West 459 528 34,000  Level Fort Worth Center
12:00AM 33.8817 -103.8619 278° West 459 528 34,000  Level Fort Worth Center
12:01AM 33.9003 -104.0122 279° West 459 528 34,000  Level Fort Worth Center
12:02AM 33.9189 -104.1650 278° West 459 528 34,000  Level Fort Worth Center
12:03AM 33.9375 -104.3144 279° West 456 525 34,000  Level Fort Worth Center
12:04AM 33.9567 -104.4667 279° West 456 525 34,000  Level Fort Worth Center
12:05AM 33.9736 -104.6175 278° West 457 526 34,000  Level Fort Worth Center
12:06AM 33.9914 -104.7697 278° West 457 526 34,000  Level Fort Worth Center
12:07AM 34.0133 -104.9425 279° West 457 526 34,000  Level Fort Worth Center
12:08AM 34.0300 -105.1128 277° West 455 524 34,000  Level Albuquerque Center
12:09AM 34.0475 -105.2669 278° West 453 521 34,000  Level Albuquerque Center
12:10AM 34.0642 -105.4203 278° West 455 524 34,000  Level Albuquerque Center
12:11AM 34.0806 -105.5725 277° West 455 524 34,000  Level Albuquerque Center
12:12AM 34.0986 -105.7250 278° West 455 524 34,000  Level Albuquerque Center
12:13AM 34.1150 -105.8778 277° West 455 524 34,000  Level Albuquerque Center
12:14AM 34.1317 -106.0303 278° West 455 524 34,000  Level Albuquerque Center
12:15AM 34.1475 -106.1833 277° West 455 524 34,000  Level Albuquerque Center
12:16AM 34.1628 -106.3300 277° West 456 525 34,000  Level Albuquerque Center
12:17AM 34.1772 -106.4831 277° West 457 526 34,000  Level Albuquerque Center
12:18AM 34.1931 -106.6367 277° West 457 526 34,000  Level Albuquerque Center
12:19AM 34.2092 -106.7908 277° West 459 528 34,000  Level Albuquerque Center
12:20AM 34.2278 -106.9761 277° West 459 528 34,000  Level Albuquerque Center
12:21AM 34.2425 -107.1328 277° West 461 531 34,000  Level Albuquerque Center
12:22AM 34.2583 -107.2894 277° West 464 534 34,000  Level Albuquerque Center
12:23AM 34.2725 -107.4478 276° West 467 537 34,000  Level Albuquerque Center
12:24AM 34.2764 -107.6078 272° West 475 547 34,000  Level Albuquerque Center
12:25AM 34.2753 -107.7694 270° West 476 548 34,000  Level Albuquerque Center
12:26AM 34.2728 -107.9303 269° West 479 551 34,000  Level Albuquerque Center
12:27AM 34.2706 -108.0900 269° West 479 551 34,000  Level Albuquerque Center
12:28AM 34.2703 -108.2519 270° West 479 551 34,000  Level Albuquerque Center
12:29AM 34.2672 -108.4131 269° West 479 551 34,000  Level Albuquerque Center
12:30AM 34.2650 -108.5844 269° West 479 551 34,000  Level Albuquerque Center
12:31AM 34.2464 -108.7450 262° West 481 554 34,000  Level Albuquerque Center
12:32AM 34.2122 -108.9075 256° West 484 557 34,000  Level Albuquerque Center
12:33AM 34.1750 -109.0519 253° West 480 552 34,000  Level Albuquerque Center
12:34AM 34.1372 -109.2014 253° West 476 548 34,000  Level Albuquerque Center
12:35AM 34.1056 -109.3486 255° West 463 533 34,000  Level Albuquerque Center
12:36AM 34.0981 -109.5094 267° West 456 525 34,000  Level Albuquerque Center
12:37AM 34.0964 -109.6778 269° West 456 525 34,000  Level Albuquerque Center
12:38AM 34.0972 -109.8206 270° West 449 517 34,000  Level Albuquerque Center
12:39AM 34.0953 -109.9592 269° West 439 505 34,000  Level Albuquerque Center
12:40AM 34.0956 -110.0894 270° West 436 502 34,000  Level Albuquerque Center
12:41AM 34.1219 -110.2581 281° West 434 499 34,000  Level Albuquerque Center
12:42AM 34.1114 -110.4014 265° West 426 490 34,000  Level Albuquerque Center
12:43AM 34.1094 -110.5431 269° West 426 490 34,000  Level Albuquerque Center
12:44AM 34.1078 -110.6828 269° West 421 484 34,000  Level Albuquerque Center
12:45AM 34.1050 -110.8269 269° West 430 495 34,000  Level Albuquerque Center
12:46AM 34.1025 -110.9764 269° West 440 506 34,000  Level Albuquerque Center
12:47AM 34.0989 -111.1314 268° West 457 526 34,000  Level Albuquerque Center
12:48AM 34.0953 -111.2886 268° West 467 537 34,000  Level Albuquerque Center
12:49AM 34.0925 -111.4456 269° West 467 537 34,000  Level Albuquerque Center
12:50AM 34.0881 -111.6031 268° West 473 544 34,000  Level Albuquerque Center
12:51AM 34.0825 -111.7894 268° West 473 544 34,000  Level Albuquerque Center
12:52AM 34.0781 -111.9497 268° West 476 548 34,000  Level Albuquerque Center
12:53AM 34.0733 -112.1058 268° West 482 555 34,000  Level Albuquerque Center
12:54AM 34.0689 -112.2653 268° West 482 555 34,000  Level Albuquerque Center
12:55AM 34.0639 -112.4242 268° West 479 551 34,000  Level Albuquerque Center
12:56AM 34.0581 -112.5847 268° West 479 551 34,000  Level Albuquerque Center
12:57AM 34.0519 -112.7461 267° West 481 554 34,000  Level Albuquerque Center
12:58AM 34.0483 -112.9067 268° West 481 554 34,000  Level Albuquerque Center
12:59AM 34.0414 -113.0697 267° West 484 557 34,000  Level Albuquerque Center
01:00AM 34.0358 -113.2306 268° West 484 557 34,000  Level Albuquerque Center
01:01AM 34.0294 -113.3897 267° West 481 554 34,000  Level Albuquerque Center
01:02AM 34.0228 -113.5494 267° West 481 554 34,000  Level Albuquerque Center
01:03AM 34.0169 -113.7119 268° West 479 551 34,000  Level Albuquerque Center
01:04AM 34.0136 -113.8708 269° West 480 552 34,000  Level Albuquerque Center
01:05AM 34.0100 -113.9878 268° West 478 550 34,000  Level Los Angeles Center
01:06AM 34.0053 -114.1481 268° West 478 550 34,000  Level Los Angeles Center
01:07AM 34.0003 -114.3053 268° West 476 548 34,000  Level Los Angeles Center
01:08AM 33.9947 -114.4631 268° West 474 545 34,000  Level Los Angeles Center
01:09AM 33.9881 -114.6214 267° West 474 545 34,000  Level Los Angeles Center
01:10AM 33.9844 -114.7797 268° West 475 547 34,000  Level Los Angeles Center
01:11AM 33.9783 -114.9367 267° West 474 545 34,000  Level Los Angeles Center
01:12AM 33.9736 -115.0611 267° West 467 537 34,000  Level Los Angeles Center
01:13AM 33.9653 -115.2489 267° West 468 539 34,000  Level Los Angeles Center
01:14AM 33.9600 -115.4050 268° West 468 539 34,000  Level Los Angeles Center
01:15AM 33.9528 -115.5622 267° West 470 541 34,000 -840 Level Los Angeles Center
01:16AM 33.9456 -115.7208 267° West 473 544 32,400 -2,280 Descending Los Angeles Center
01:17AM 33.9367 -115.9056 267° West 469 540 29,400 -2,820 Descending Los Angeles Center
01:18AM 33.9292 -116.0617 267° West 468 539 26,700 -2,760 Descending Los Angeles Center
01:19AM 33.9217 -116.2189 267° West 470 541 23,800 -3,000 Descending Los Angeles Center
01:20AM 33.9139 -116.3708 267° West 462 532 20,700 -3,060 Descending Los Angeles Center
01:21AM 33.9064 -116.5219 267° West 458 527 17,700 -2,580 Descending Los Angeles Center
01:22AM 33.8997 -116.6661 267° West 438 504 15,500 -1,920 Descending Los Angeles Center
01:23AM 33.8914 -116.8006 266° West 410 472 13,900 -1,320 Descending Los Angeles Center
01:24AM 33.9106 -116.9156 281° West 358 412 12,900 -1,500 Descending Los Angeles Center
01:25AM 33.9467 -117.0258 292° West 350 403 10,900 -1,740 Descending Los Angeles Center
01:26AM 33.9789 -117.1278 291° West 329 379 9,400 -2,040 Descending Los Angeles Center
01:27AM 34.0122 -117.2289 292° West 302 348 6,800 -2,280 Descending Los Angeles Center
01:28AM 34.0333 -117.3167 286° West 262 302 5,000 -1,440 Descending Southern California TRACON
01:29AM 34.0500 -117.3833 287° West 216 249 4,100 -1,020 Descending Southern California TRACON
01:30AM 34.0500 -117.4667 270° West 192 221 2,900 -1,020 Descending Southern California TRACON
01:31AM 34.0500 -117.5167 270° West 158 182 2,000 -840 Descending Southern California TRACON
01:32AM 34.0500 -117.5667 270° West 135 155 1,300 -720 Descending Southern California TRACON